»·PEaware :: N412DB KHQM-S23

N412DB :: KHQM-S23

FLIGHT INFORMATION

Flight Status: Arrived
Operator: Privately registered:
United States
More flights under this callsign
Pilot: David B. (29149)
Aircraft: CIRRUS VISIONJET
(SF50)
More flights by this aircraft type
Origin: KHQM Bowerman
United States
Destination: S23 Ione Mun
United States
More flights between these airports :: More routes between these airports
Route:
File this flight plan on PilotEdge
Remarks: GEG DIANN
Altitude:
(Current/Filed)
17,500ft
Speed:
(Current/Filed)
250kts
Departed: 16-May-20 08:48 PM
Arrived: 16-May-20 10:09 PM
Distance/Time
Traveled:
283nm/1:21
Distance/Time
To Go:
Arrived

Flight Plot

Page will automatically refresh every two minutes.

Flight plan parsing failed; only flown route is shown


Map Options




Map Legend


Flown Route
Filed Route
Departure Airport
Arrival Airport
Navaid (VOR, NDB)
Fix

Horizontal Profiles

Position Reports

Time Latitude Longitude Heading Altitude Ground
Speed
16-May-20 20:40 46.973458 -123.929797 170 18ft 0kts
16-May-20 20:41 46.973458 -123.929797 170 18ft 0kts
16-May-20 20:42 46.973458 -123.929797 170 18ft 0kts
16-May-20 20:43 46.973458 -123.929797 170 18ft 0kts
16-May-20 20:44 46.973458 -123.929797 170 18ft 0kts
16-May-20 20:45 46.973095 -123.927327 126 18ft 0kts
16-May-20 20:46 46.972274 -123.927879 259 18ft 32kts
16-May-20 20:47 46.962439 -123.979262 221 1095ft 191kts
16-May-20 20:48 46.924484 -123.940680 82 3145ft 242kts
16-May-20 20:49 46.962435 -123.857304 49 5222ft 258kts
16-May-20 20:50 46.992372 -123.763440 79 7238ft 262kts
16-May-20 20:51 47.004621 -123.661731 79 9728ft 244kts
16-May-20 20:53 47.015710 -123.569206 79 12411ft 219kts
16-May-20 20:54 47.026112 -123.481816 79 14486ft 220kts
16-May-20 20:55 47.036455 -123.394336 79 16484ft 216kts
16-May-20 20:56 47.046987 -123.304659 80 17505ft 251kts
16-May-20 20:57 47.059409 -123.198113 80 17501ft 273kts
16-May-20 20:58 47.072391 -123.085764 80 17500ft 281kts
16-May-20 20:59 47.085417 -122.971970 80 17500ft 284kts
16-May-20 21:00 47.098484 -122.856754 80 17500ft 286kts
16-May-20 21:01 47.111299 -122.742706 80 17500ft 286kts
16-May-20 21:02 47.124163 -122.627144 80 17500ft 286kts
16-May-20 21:03 47.136936 -122.511289 80 17499ft 286kts
16-May-20 21:04 47.149575 -122.395538 80 17499ft 286kts
16-May-20 21:05 47.162139 -122.279329 81 17499ft 286kts
16-May-20 21:06 47.174535 -122.163556 81 17499ft 286kts
16-May-20 21:07 47.186853 -122.047366 81 17499ft 286kts
16-May-20 21:08 47.199021 -121.931426 81 17499ft 287kts
16-May-20 21:09 47.211045 -121.815697 81 17499ft 287kts
16-May-20 21:10 47.222997 -121.699487 81 17499ft 287kts
16-May-20 21:10 47.232869 -121.602585 81 17499ft 287kts
16-May-20 21:12 47.246500 -121.467367 81 17499ft 287kts
16-May-20 21:13 47.258115 -121.350837 81 17499ft 287kts
16-May-20 21:13 47.267471 -121.255670 82 17497ft 287kts
16-May-20 21:14 47.278705 -121.139218 82 17499ft 286kts
16-May-20 21:16 47.291869 -121.003507 82 17499ft 286kts
16-May-20 21:16 47.301157 -120.906377 82 17499ft 286kts
16-May-20 21:17 47.312189 -120.789763 82 17499ft 287kts
16-May-20 21:18 47.323056 -120.673574 82 17499ft 287kts
16-May-20 21:19 47.333859 -120.556776 82 17499ft 287kts
16-May-20 21:20 47.344508 -120.440313 82 17499ft 287kts
16-May-20 21:21 47.354807 -120.326373 82 17499ft 287kts
16-May-20 21:22 47.365286 -120.209100 82 17499ft 287kts
16-May-20 21:23 47.375591 -120.092408 82 17499ft 287kts
16-May-20 21:24 47.385766 -119.975797 82 17499ft 287kts
16-May-20 21:25 47.395830 -119.859058 82 17499ft 287kts
16-May-20 21:26 47.405780 -119.742223 82 17499ft 287kts
16-May-20 21:27 47.415612 -119.625332 82 17499ft 287kts
16-May-20 21:28 47.425342 -119.508186 82 17499ft 287kts
16-May-20 21:29 47.434951 -119.391033 82 17499ft 287kts
16-May-20 21:30 47.444190 -119.276930 83 17499ft 287kts
16-May-20 21:31 47.453575 -119.159541 83 17499ft 287kts
16-May-20 21:32 47.462826 -119.042285 83 17499ft 287kts
16-May-20 21:33 47.471933 -118.925306 83 17499ft 287kts
16-May-20 21:34 47.480932 -118.808146 83 17499ft 287kts
16-May-20 21:35 47.489832 -118.690680 83 17499ft 287kts
16-May-20 21:36 47.498596 -118.573353 83 17443ft 287kts
16-May-20 21:37 47.507002 -118.459316 83 16226ft 275kts
16-May-20 21:38 47.514950 -118.349952 84 15056ft 271kts
16-May-20 21:39 47.522833 -118.240001 84 13873ft 269kts
16-May-20 21:40 47.530597 -118.130198 84 12690ft 268kts
16-May-20 21:41 47.538238 -118.020620 84 11509ft 267kts
16-May-20 21:42 47.545644 -117.912965 84 10355ft 249kts
16-May-20 21:43 47.552537 -117.811427 84 9280ft 246kts
16-May-20 21:44 47.559277 -117.710768 84 8201ft 244kts
16-May-20 21:45 47.580058 -117.621229 35 7517ft 242kts
16-May-20 21:46 47.639110 -117.571971 26 7499ft 242kts
16-May-20 21:47 47.698961 -117.527251 26 7499ft 241kts
16-May-20 21:48 47.758917 -117.482565 26 7499ft 240kts
16-May-20 21:49 47.818568 -117.438000 26 7499ft 240kts
16-May-20 21:50 47.878278 -117.393276 26 7499ft 240kts
16-May-20 21:51 47.937302 -117.348952 27 7499ft 240kts
16-May-20 21:52 47.997077 -117.303947 27 7316ft 239kts
16-May-20 21:53 48.055704 -117.259695 27 6286ft 234kts
16-May-20 21:54 48.113088 -117.216264 27 5268ft 232kts
16-May-20 21:55 48.171648 -117.185567 352 4676ft 215kts
16-May-20 21:56 48.227183 -117.204815 344 4654ft 199kts
16-May-20 21:57 48.278923 -117.226738 344 4804ft 185kts
16-May-20 21:58 48.327386 -117.247600 344 5000ft 181kts
16-May-20 21:59 48.376357 -117.268718 344 5090ft 182kts
16-May-20 22:00 48.424473 -117.289511 344 5287ft 178kts
16-May-20 22:01 48.472098 -117.310132 344 5486ft 177kts
16-May-20 22:02 48.520537 -117.331142 344 5502ft 184kts
16-May-20 22:03 48.570721 -117.352936 344 4852ft 188kts
16-May-20 22:04 48.616164 -117.372748 344 3973ft 118kts
16-May-20 22:05 48.645103 -117.385189 346 3364ft 107kts
16-May-20 22:06 48.672530 -117.402205 340 2795ft 106kts
16-May-20 22:07 48.700827 -117.410527 349 2189ft 96kts
16-May-20 22:08 48.711865 -117.414266 348 2116ft 17kts
16-May-20 22:09 48.713826 -117.413952 82 2115ft 0kts

Navigation Log

Ident Type
Flight plan parsing failed, navigation log unavailable